This is the latest recevied weather packets stored in our database for station/object DL4JCP-6. If no packets are shown the sender has not sent any weather packets the latest 10 day(s).
| Time | Temp. | Humidity | Pressure | Rain* | Wind** | Luminosity | Snow |
|---|---|---|---|---|---|---|---|
| 1777789997 | 20° C | 35% | 1018.3 hPa | 0 mm | - | - | - |
| 1777789098 | 18.89° C | 45% | 1018.4 hPa | 0 mm | - | - | - |
| 1777788197 | 17.22° C | 45% | 1018.1 hPa | 0 mm | - | - | - |
| 1777787297 | 15° C | 53% | 1018 hPa | 0 mm | - | - | - |
| 1777786397 | 13.89° C | 54% | 1018 hPa | 0 mm | - | - | - |
| 1777785500 | 12.78° C | 58% | 1018 hPa | 0 mm | - | - | - |
| 1777784600 | 12.22° C | 57% | 1018.2 hPa | 0 mm | - | - | - |
| 1777783697 | 11.67° C | 55% | 1018.1 hPa | 0 mm | - | - | - |
| 1777782797 | 11.11° C | 58% | 1018.2 hPa | 0 mm | - | - | - |
| 1777781897 | 10° C | 61% | 1018.1 hPa | 0 mm | - | - | - |
| 1777780997 | 7.78° C | 71% | 1018.1 hPa | 0 mm | - | - | - |
| 1777780097 | 7.22° C | 75% | 1017.8 hPa | 0 mm | - | - | - |
| 1777779196 | 7.78° C | 72% | 1018 hPa | 0 mm | - | - | - |
| 1777778296 | 8.33° C | 69% | 1018 hPa | 0 mm | - | - | - |
| 1777777396 | 8.89° C | 65% | 1018.1 hPa | 0 mm | - | - | - |
| 1777776497 | 9.44° C | 62% | 1018.2 hPa | 0 mm | - | - | - |
| 1777775596 | 10.56° C | 60% | 1018.5 hPa | 0 mm | - | - | - |
| 1777774696 | 10.56° C | 57% | 1018.6 hPa | 0 mm | - | - | - |
| 1777773796 | 10.56° C | 57% | 1018.7 hPa | 0 mm | - | - | - |
| 1777772896 | 10.56° C | 58% | 1018.7 hPa | 0 mm | - | - | - |
| 1777771996 | 9.44° C | 62% | 1018.6 hPa | 0 mm | - | - | - |
| 1777771096 | 9.44° C | 64% | 1018.8 hPa | 0 mm | - | - | - |
| 1777770196 | 9.44° C | 63% | 1018.9 hPa | 0 mm | - | - | - |
| 1777769296 | 10.56° C | 60% | 1019.2 hPa | 0 mm | - | - | - |
| 1777768395 | 11.11° C | 58% | 1019.1 hPa | 0 mm | - | - | - |
* Rain latest hour (hover to see other rain measurements)
** Current wind speed in m/s (hover to see current wind gust speed)